sensor_id;sensor_type;location;lat;lon;timestamp;pressure;altitude;pressure_sealevel;temperature;humidity
43711;BME280;29309;42.682;23.372;2023-01-28T00:00:52;94528.31;;;0.60;86.45
43711;BME280;29309;42.682;23.372;2023-01-28T00:03:17;94527.59;;;0.60;86.28
43711;BME280;29309;42.682;23.372;2023-01-28T00:05:43;94535.25;;;0.61;86.28
43711;BME280;29309;42.682;23.372;2023-01-28T00:08:09;94544.13;;;0.62;86.45
43711;BME280;29309;42.682;23.372;2023-01-28T00:10:36;94547.28;;;0.58;86.43
43711;BME280;29309;42.682;23.372;2023-01-28T00:13:04;94543.84;;;0.58;86.84
43711;BME280;29309;42.682;23.372;2023-01-28T00:15:30;94555.31;;;0.56;86.76
43711;BME280;29309;42.682;23.372;2023-01-28T00:17:55;94558.19;;;0.58;86.55
43711;BME280;29309;42.682;23.372;2023-01-28T00:20:21;94554.19;;;0.59;86.45
43711;BME280;29309;42.682;23.372;2023-01-28T00:22:47;94565.28;;;0.61;86.78
43711;BME280;29309;42.682;23.372;2023-01-28T00:25:13;94561.25;;;0.62;86.49
43711;BME280;29309;42.682;23.372;2023-01-28T00:27:39;94559.66;;;0.59;86.44
43711;BME280;29309;42.682;23.372;2023-01-28T00:30:05;94568.72;;;0.62;86.13
43711;BME280;29309;42.682;23.372;2023-01-28T00:32:31;94561.97;;;0.63;86.53
43711;BME280;29309;42.682;23.372;2023-01-28T00:34:56;94563.41;;;0.64;86.39
43711;BME280;29309;42.682;23.372;2023-01-28T00:37:22;94575.78;;;0.65;85.82
43711;BME280;29309;42.682;23.372;2023-01-28T00:39:48;94575.06;;;0.64;85.49
43711;BME280;29309;42.682;23.372;2023-01-28T00:42:14;94575.06;;;0.64;85.71
43711;BME280;29309;42.682;23.372;2023-01-28T00:44:40;94570.31;;;0.65;85.90
43711;BME280;29309;42.682;23.372;2023-01-28T00:47:05;94577.06;;;0.64;85.94
43711;BME280;29309;42.682;23.372;2023-01-28T00:49:30;94570.31;;;0.65;86.05
43711;BME280;29309;42.682;23.372;2023-01-28T00:51:56;94580.94;;;0.61;85.54
43711;BME280;29309;42.682;23.372;2023-01-28T00:54:21;94578.53;;;0.65;85.68
43711;BME280;29309;42.682;23.372;2023-01-28T00:56:47;94573.63;;;0.63;85.27
43711;BME280;29309;42.682;23.372;2023-01-28T00:59:12;94580.53;;;0.64;85.06
43711;BME280;29309;42.682;23.372;2023-01-28T01:01:38;94577.19;;;0.56;85.03
43711;BME280;29309;42.682;23.372;2023-01-28T01:04:03;94580.94;;;0.61;85.18
43711;BME280;29309;42.682;23.372;2023-01-28T01:06:31;94572.16;;;0.62;85.30
43711;BME280;29309;42.682;23.372;2023-01-28T01:08:57;94575.16;;;0.57;85.45
43711;BME280;29309;42.682;23.372;2023-01-28T01:11:23;94576.03;;;0.59;85.61
43711;BME280;29309;42.682;23.372;2023-01-28T01:13:59;94576.22;;;0.61;85.60
43711;BME280;29309;42.682;23.372;2023-01-28T01:16:29;94578.75;;;0.59;85.33
43711;BME280;29309;42.682;23.372;2023-01-28T01:18:56;94583.38;;;0.57;85.88
43711;BME280;29309;42.682;23.372;2023-01-28T01:21:25;94580.63;;;0.57;85.79
43711;BME280;29309;42.682;23.372;2023-01-28T01:23:51;94585.69;;;0.60;85.55
43711;BME280;29309;42.682;23.372;2023-01-28T01:26:18;94582.78;;;0.58;85.83
43711;BME280;29309;42.682;23.372;2023-01-28T01:28:44;94582.31;;;0.52;85.73
43711;BME280;29309;42.682;23.372;2023-01-28T01:31:15;94591.56;;;0.57;85.65
43711;BME280;29309;42.682;23.372;2023-01-28T01:33:42;94588.09;;;0.56;85.79
43711;BME280;29309;42.682;23.372;2023-01-28T01:36:10;94595.41;;;0.54;85.71
43711;BME280;29309;42.682;23.372;2023-01-28T01:38:35;94588.81;;;0.57;85.49
43711;BME280;29309;42.682;23.372;2023-01-28T01:41:02;94590.09;;;0.56;85.57
43711;BME280;29309;42.682;23.372;2023-01-28T01:43:53;94586.50;;;0.53;85.60
43711;BME280;29309;42.682;23.372;2023-01-28T01:46:40;94589.97;;;0.54;85.67
43711;BME280;29309;42.682;23.372;2023-01-28T01:51:43;94591.25;;;0.53;85.73
43711;BME280;29309;42.682;23.372;2023-01-28T01:54:10;94593.66;;;0.48;85.91
43711;BME280;29309;42.682;23.372;2023-01-28T01:56:40;94597.00;;;0.57;85.89
43711;BME280;29309;42.682;23.372;2023-01-28T01:59:10;94594.13;;;0.55;85.57
43711;BME280;29309;42.682;23.372;2023-01-28T02:01:37;94596.28;;;0.56;85.82
43711;BME280;29309;42.682;23.372;2023-01-28T02:04:17;94600.31;;;0.55;86.04
43711;BME280;29309;42.682;23.372;2023-01-28T02:06:44;94602.94;;;0.63;85.83
43711;BME280;29309;42.682;23.372;2023-01-28T02:09:31;94603.09;;;0.65;85.89
43711;BME280;29309;42.682;23.372;2023-01-28T02:12:04;94608.88;;;0.69;85.76
43711;BME280;29309;42.682;23.372;2023-01-28T02:14:35;94603.41;;;0.69;85.26
43711;BME280;29309;42.682;23.372;2023-01-28T02:17:01;94597.22;;;0.68;85.03
43711;BME280;29309;42.682;23.372;2023-01-28T02:19:37;94608.56;;;0.65;84.84
43711;BME280;29309;42.682;23.372;2023-01-28T02:22:54;94605.66;;;0.63;85.06
43711;BME280;29309;42.682;23.372;2023-01-28T02:30:25;94607.25;;;0.66;85.21
43711;BME280;29309;42.682;23.372;2023-01-28T02:33:00;94606.16;;;0.69;84.78
43711;BME280;29309;42.682;23.372;2023-01-28T02:35:51;94607.00;;;0.71;84.86
43711;BME280;29309;42.682;23.372;2023-01-28T02:38:21;94610.16;;;0.68;84.84
43711;BME280;29309;42.682;23.372;2023-01-28T02:40:54;94613.63;;;0.68;84.75
43711;BME280;29309;42.682;23.372;2023-01-28T02:43:38;94612.47;;;0.71;84.88
43711;BME280;29309;42.682;23.372;2023-01-28T02:46:32;94614.94;;;0.77;84.44
43711;BME280;29309;42.682;23.372;2023-01-28T02:59:50;94623.00;;;0.75;83.89
43711;BME280;29309;42.682;23.372;2023-01-28T03:02:39;94618.56;;;0.79;83.59
43711;BME280;29309;42.682;23.372;2023-01-28T03:05:15;94612.19;;;0.77;83.02
43711;BME280;29309;42.682;23.372;2023-01-28T03:07:45;94613.94;;;0.72;83.29
43711;BME280;29309;42.682;23.372;2023-01-28T03:10:14;94619.38;;;0.72;83.42
43711;BME280;29309;42.682;23.372;2023-01-28T03:12:43;94617.53;;;0.75;83.20
43711;BME280;29309;42.682;23.372;2023-01-28T03:15:33;94619.13;;;0.78;83.33
43711;BME280;29309;42.682;23.372;2023-01-28T03:18:36;94618.97;;;0.76;83.29
43711;BME280;29309;42.682;23.372;2023-01-28T03:21:27;94620.97;;;0.75;83.27
43711;BME280;29309;42.682;23.372;2023-01-28T03:24:16;94625.13;;;0.76;82.87
43711;BME280;29309;42.682;23.372;2023-01-28T03:27:11;94626.13;;;0.71;82.70
43711;BME280;29309;42.682;23.372;2023-01-28T03:29:59;94625.25;;;0.69;82.57
43711;BME280;29309;42.682;23.372;2023-01-28T03:32:45;94627.50;;;0.63;82.82
43711;BME280;29309;42.682;23.372;2023-01-28T03:35:31;94631.53;;;0.62;82.82
43711;BME280;29309;42.682;23.372;2023-01-28T03:38:18;94628.25;;;0.63;82.81
43711;BME280;29309;42.682;23.372;2023-01-28T03:40:57;94629.94;;;0.59;82.87
43711;BME280;29309;42.682;23.372;2023-01-28T03:43:24;94635.25;;;0.57;82.69
43711;BME280;29309;42.682;23.372;2023-01-28T03:45:50;94628.19;;;0.54;82.98
43711;BME280;29309;42.682;23.372;2023-01-28T03:48:21;94638.63;;;0.47;83.21
43711;BME280;29309;42.682;23.372;2023-01-28T03:50:47;94636.38;;;0.54;83.47
43711;BME280;29309;42.682;23.372;2023-01-28T03:53:14;94637.41;;;0.58;83.38
43711;BME280;29309;42.682;23.372;2023-01-28T03:55:41;94637.81;;;0.55;83.29
43711;BME280;29309;42.682;23.372;2023-01-28T03:58:07;94638.13;;;0.59;83.42
43711;BME280;29309;42.682;23.372;2023-01-28T04:00:33;94635.25;;;0.57;83.29
43711;BME280;29309;42.682;23.372;2023-01-28T04:03:05;94632.34;;;0.55;83.24
43711;BME280;29309;42.682;23.372;2023-01-28T04:05:41;94640.53;;;0.55;83.15
43711;BME280;29309;42.682;23.372;2023-01-28T04:08:07;94641.13;;;0.53;83.23
43711;BME280;29309;42.682;23.372;2023-01-28T04:10:32;94652.59;;;0.52;83.30
43711;BME280;29309;42.682;23.372;2023-01-28T04:12:57;94648.28;;;0.48;83.52
43711;BME280;29309;42.682;23.372;2023-01-28T04:15:23;94653.41;;;0.44;83.44
43711;BME280;29309;42.682;23.372;2023-01-28T04:17:48;94653.59;;;0.46;83.39
43711;BME280;29309;42.682;23.372;2023-01-28T04:20:14;94658.31;;;0.46;83.45
43711;BME280;29309;42.682;23.372;2023-01-28T04:22:40;94648.84;;;0.47;83.43
43711;BME280;29309;42.682;23.372;2023-01-28T04:25:05;94660.47;;;0.47;83.57
43711;BME280;29309;42.682;23.372;2023-01-28T04:27:32;94652.69;;;0.44;83.60
43711;BME280;29309;42.682;23.372;2023-01-28T04:29:57;94663.06;;;0.45;83.79
43711;BME280;29309;42.682;23.372;2023-01-28T04:32:23;94660.78;;;0.52;83.84
43711;BME280;29309;42.682;23.372;2023-01-28T04:34:48;94666.97;;;0.52;84.23
43711;BME280;29309;42.682;23.372;2023-01-28T04:37:13;94664.41;;;0.54;83.77
43711;BME280;29309;42.682;23.372;2023-01-28T04:39:39;94667.69;;;0.53;83.48
43711;BME280;29309;42.682;23.372;2023-01-28T04:42:04;94673.56;;;0.49;83.04
43711;BME280;29309;42.682;23.372;2023-01-28T04:44:30;94676.72;;;0.45;83.02
43711;BME280;29309;42.682;23.372;2023-01-28T04:46:55;94679.25;;;0.43;83.04
43711;BME280;29309;42.682;23.372;2023-01-28T04:49:20;94677.84;;;0.42;82.97
43711;BME280;29309;42.682;23.372;2023-01-28T04:51:46;94684.03;;;0.43;83.27
43711;BME280;29309;42.682;23.372;2023-01-28T04:54:11;94687.44;;;0.43;83.41
43711;BME280;29309;42.682;23.372;2023-01-28T04:56:37;94684.03;;;0.43;83.66
43711;BME280;29309;42.682;23.372;2023-01-28T04:59:02;94686.75;;;0.43;83.56
43711;BME280;29309;42.682;23.372;2023-01-28T05:01:28;94696.78;;;0.40;83.61
43711;BME280;29309;42.682;23.372;2023-01-28T05:03:53;94695.50;;;0.41;83.67
43711;BME280;29309;42.682;23.372;2023-01-28T05:06:19;94697.69;;;0.43;83.83
43711;BME280;29309;42.682;23.372;2023-01-28T05:08:45;94698.78;;;0.40;84.48
43711;BME280;29309;42.682;23.372;2023-01-28T05:11:11;94701.28;;;0.45;84.35
43711;BME280;29309;42.682;23.372;2023-01-28T05:13:37;94697.50;;;0.41;84.90
43711;BME280;29309;42.682;23.372;2023-01-28T05:16:04;94705.63;;;0.48;84.32
43711;BME280;29309;42.682;23.372;2023-01-28T05:18:30;94707.63;;;0.48;84.25
43711;BME280;29309;42.682;23.372;2023-01-28T05:20:56;94711.88;;;0.41;83.88
43711;BME280;29309;42.682;23.372;2023-01-28T05:23:22;94700.97;;;0.41;83.80
43711;BME280;29309;42.682;23.372;2023-01-28T05:25:47;94708.50;;;0.33;84.21
43711;BME280;29309;42.682;23.372;2023-01-28T05:28:13;94709.81;;;0.32;84.11
43711;BME280;29309;42.682;23.372;2023-01-28T05:30:38;94711.81;;;0.32;84.34
43711;BME280;29309;42.682;23.372;2023-01-28T05:33:04;94709.81;;;0.32;84.42
43711;BME280;29309;42.682;23.372;2023-01-28T05:35:30;94714.13;;;0.35;84.72
43711;BME280;29309;42.682;23.372;2023-01-28T05:37:55;94722.47;;;0.37;84.63
43711;BME280;29309;42.682;23.372;2023-01-28T05:40:21;94725.06;;;0.35;84.71
43711;BME280;29309;42.682;23.372;2023-01-28T05:42:46;94714.13;;;0.35;84.15
43711;BME280;29309;42.682;23.372;2023-01-28T05:45:11;94716.88;;;0.35;83.98
43711;BME280;29309;42.682;23.372;2023-01-28T05:47:37;94724.72;;;0.31;83.80
43711;BME280;29309;42.682;23.372;2023-01-28T05:50:04;94718.56;;;0.31;84.06
43711;BME280;29309;42.682;23.372;2023-01-28T05:52:29;94721.28;;;0.31;84.37
43711;BME280;29309;42.682;23.372;2023-01-28T05:54:55;94731.66;;;0.32;83.75
43711;BME280;29309;42.682;23.372;2023-01-28T05:57:20;94733.66;;;0.32;83.64
43711;BME280;29309;42.682;23.372;2023-01-28T05:59:46;94734.06;;;0.28;84.13
43711;BME280;29309;42.682;23.372;2023-01-28T06:02:11;94743.84;;;0.31;84.01
43711;BME280;29309;42.682;23.372;2023-01-28T06:04:36;94745.13;;;0.30;84.00
43711;BME280;29309;42.682;23.372;2023-01-28T06:07:03;94751.47;;;0.33;83.42
43711;BME280;29309;42.682;23.372;2023-01-28T06:09:28;94756.63;;;0.29;83.74
43711;BME280;29309;42.682;23.372;2023-01-28T06:11:54;94758.63;;;0.28;84.11
43711;BME280;29309;42.682;23.372;2023-01-28T06:14:19;94760.38;;;0.33;83.71
43711;BME280;29309;42.682;23.372;2023-01-28T06:16:45;94760.38;;;0.33;83.75
43711;BME280;29309;42.682;23.372;2023-01-28T06:22:05;94765.84;;;0.33;83.70
43711;BME280;29309;42.682;23.372;2023-01-28T06:24:30;94777.47;;;0.34;83.56
43711;BME280;29309;42.682;23.372;2023-01-28T06:26:56;94774.59;;;0.32;83.64
43711;BME280;29309;42.682;23.372;2023-01-28T06:29:21;94789.53;;;0.31;83.84
43711;BME280;29309;42.682;23.372;2023-01-28T06:31:47;94783.13;;;0.36;84.07
43711;BME280;29309;42.682;23.372;2023-01-28T06:34:12;94790.91;;;0.39;83.39
43711;BME280;29309;42.682;23.372;2023-01-28T06:36:38;94788.47;;;0.43;83.09
43711;BME280;29309;42.682;23.372;2023-01-28T06:39:03;94788.47;;;0.43;83.02
43711;BME280;29309;42.682;23.372;2023-01-28T06:41:29;94792.34;;;0.40;82.72
43711;BME280;29309;42.682;23.372;2023-01-28T06:43:55;94784.72;;;0.39;82.81
43711;BME280;29309;42.682;23.372;2023-01-28T06:46:20;94795.97;;;0.43;82.86
43711;BME280;29309;42.682;23.372;2023-01-28T06:48:46;94803.91;;;0.48;82.44
43711;BME280;29309;42.682;23.372;2023-01-28T06:51:11;94806.09;;;0.50;82.53
43711;BME280;29309;42.682;23.372;2023-01-28T06:53:37;94807.38;;;0.49;82.21
43711;BME280;29309;42.682;23.372;2023-01-28T06:56:02;94803.91;;;0.48;82.32
43711;BME280;29309;42.682;23.372;2023-01-28T06:58:28;94820.47;;;0.51;82.29
43711;BME280;29309;42.682;23.372;2023-01-28T07:00:53;94816.44;;;0.52;82.01
43711;BME280;29309;42.682;23.372;2023-01-28T07:03:19;94817.16;;;0.52;81.77
43711;BME280;29309;42.682;23.372;2023-01-28T07:05:44;94826.47;;;0.49;82.36
43711;BME280;29309;42.682;23.372;2023-01-28T07:08:10;94829.38;;;0.51;82.42
43711;BME280;29309;42.682;23.372;2023-01-28T07:10:36;94830.50;;;0.48;82.11
43711;BME280;29309;42.682;23.372;2023-01-28T07:13:01;94827.22;;;0.49;81.42
43711;BME280;29309;42.682;23.372;2023-01-28T07:15:27;94842.16;;;0.48;81.69
43711;BME280;29309;42.682;23.372;2023-01-28T07:17:53;94851.22;;;0.51;82.39
43711;BME280;29309;42.682;23.372;2023-01-28T07:20:18;94851.38;;;0.53;82.56
43711;BME280;29309;42.682;23.372;2023-01-28T07:22:44;94853.31;;;0.60;82.86
43711;BME280;29309;42.682;23.372;2023-01-28T07:25:11;94852.44;;;0.58;82.41
43711;BME280;29309;42.682;23.372;2023-01-28T07:27:37;94854.06;;;0.61;82.41
43711;BME280;29309;42.682;23.372;2023-01-28T07:30:03;94862.25;;;0.61;82.39
43711;BME280;29309;42.682;23.372;2023-01-28T07:32:29;94852.94;;;0.64;81.62
43711;BME280;29309;42.682;23.372;2023-01-28T07:34:54;94858.00;;;0.67;81.63
43711;BME280;29309;42.682;23.372;2023-01-28T07:37:20;94860.72;;;0.67;81.92
43711;BME280;29309;42.682;23.372;2023-01-28T07:39:45;94873.66;;;0.67;82.21
43711;BME280;29309;42.682;23.372;2023-01-28T07:42:11;94874.84;;;0.73;81.61
43711;BME280;29309;42.682;23.372;2023-01-28T07:44:37;94871.56;;;0.75;81.36
43711;BME280;29309;42.682;23.372;2023-01-28T07:47:04;94882.66;;;0.77;81.69
43711;BME280;29309;42.682;23.372;2023-01-28T07:49:29;94872.47;;;0.77;82.05
43711;BME280;29309;42.682;23.372;2023-01-28T07:51:55;94875.50;;;0.81;81.57
43711;BME280;29309;42.682;23.372;2023-01-28T07:54:20;94877.44;;;0.88;81.68
43711;BME280;29309;42.682;23.372;2023-01-28T07:56:46;94878.72;;;0.87;80.98
43711;BME280;29309;42.682;23.372;2023-01-28T07:59:11;94893.13;;;0.88;80.85
43711;BME280;29309;42.682;23.372;2023-01-28T08:01:37;94885.09;;;0.90;80.65
43711;BME280;29309;42.682;23.372;2023-01-28T08:04:03;94882.59;;;0.84;80.49
43711;BME280;29309;42.682;23.372;2023-01-28T08:06:28;94884.44;;;0.82;80.46
43711;BME280;29309;42.682;23.372;2023-01-28T08:08:54;94894.31;;;0.77;80.87
43711;BME280;29309;42.682;23.372;2023-01-28T08:11:20;94898.66;;;0.80;80.91
43711;BME280;29309;42.682;23.372;2023-01-28T08:13:45;94885.91;;;0.83;81.06
43711;BME280;29309;42.682;23.372;2023-01-28T08:16:12;94895.28;;;0.89;80.96
43711;BME280;29309;42.682;23.372;2023-01-28T08:18:38;94902.22;;;0.90;80.88
43711;BME280;29309;42.682;23.372;2023-01-28T08:21:03;94898.75;;;0.90;80.71
43711;BME280;29309;42.682;23.372;2023-01-28T08:23:29;94901.25;;;0.95;80.50
43711;BME280;29309;42.682;23.372;2023-01-28T08:25:57;94902.53;;;0.94;80.12
43711;BME280;29309;42.682;23.372;2023-01-28T08:28:23;94901.41;;;0.97;80.41
43711;BME280;29309;42.682;23.372;2023-01-28T08:30:49;94907.19;;;1.02;80.10
43711;BME280;29309;42.682;23.372;2023-01-28T08:33:16;94902.44;;;1.02;80.23
43711;BME280;29309;42.682;23.372;2023-01-28T08:35:41;94899.16;;;1.04;79.95
43711;BME280;29309;42.682;23.372;2023-01-28T08:38:07;94904.38;;;1.09;79.74
43711;BME280;29309;42.682;23.372;2023-01-28T08:40:33;94896.50;;;1.13;79.65
43711;BME280;29309;42.682;23.372;2023-01-28T08:42:59;94899.56;;;1.17;80.16
43711;BME280;29309;42.682;23.372;2023-01-28T08:45:27;94895.53;;;1.18;79.79
43711;BME280;29309;42.682;23.372;2023-01-28T08:47:55;94897.47;;;1.25;79.38
43711;BME280;29309;42.682;23.372;2023-01-28T08:50:22;94899.84;;;1.38;81.66
43711;BME280;29309;42.682;23.372;2023-01-28T08:52:54;94891.47;;;1.54;82.12
43711;BME280;29309;42.682;23.372;2023-01-28T08:55:19;94897.22;;;1.75;83.63
43711;BME280;29309;42.682;23.372;2023-01-28T08:57:45;94901.97;;;1.74;80.52
43711;BME280;29309;42.682;23.372;2023-01-28T09:00:11;94906.41;;;1.70;79.26
43711;BME280;29309;42.682;23.372;2023-01-28T09:02:37;94913.16;;;1.69;78.33
43711;BME280;29309;42.682;23.372;2023-01-28T09:05:03;94908.97;;;1.68;77.65
43711;BME280;29309;42.682;23.372;2023-01-28T09:07:29;94906.94;;;1.59;77.58
43711;BME280;29309;42.682;23.372;2023-01-28T09:09:55;94913.81;;;1.60;77.80
43711;BME280;29309;42.682;23.372;2023-01-28T09:12:20;94917.47;;;1.62;77.65
43711;BME280;29309;42.682;23.372;2023-01-28T09:14:45;94912.41;;;1.59;77.36
43711;BME280;29309;42.682;23.372;2023-01-28T09:17:11;94911.66;;;1.58;77.05
43711;BME280;29309;42.682;23.372;2023-01-28T09:19:36;94910.13;;;1.65;76.71
43711;BME280;29309;42.682;23.372;2023-01-28T09:22:03;94919.47;;;1.62;76.63
43711;BME280;29309;42.682;23.372;2023-01-28T09:24:28;94918.59;;;1.59;76.71
43711;BME280;29309;42.682;23.372;2023-01-28T09:27:06;94916.56;;;1.60;77.28
43711;BME280;29309;42.682;23.372;2023-01-28T09:29:34;94907.25;;;1.63;77.70
43711;BME280;29309;42.682;23.372;2023-01-28T09:32:00;94912.94;;;1.57;77.64
43711;BME280;29309;42.682;23.372;2023-01-28T09:34:25;94910.31;;;1.49;77.14
43711;BME280;29309;42.682;23.372;2023-01-28T09:36:51;94905.97;;;1.46;77.80
43711;BME280;29309;42.682;23.372;2023-01-28T09:39:17;94911.28;;;1.44;78.32
43711;BME280;29309;42.682;23.372;2023-01-28T09:45:16;94909.97;;;1.45;77.95
43711;BME280;29309;42.682;23.372;2023-01-28T09:47:54;94914.16;;;1.46;78.13
43711;BME280;29309;42.682;23.372;2023-01-28T09:50:39;94914.31;;;1.48;78.41
43711;BME280;29309;42.682;23.372;2023-01-28T09:56:01;94913.78;;;1.33;78.72
43711;BME280;29309;42.682;23.372;2023-01-28T09:58:27;94912.88;;;1.30;79.05
43711;BME280;29309;42.682;23.372;2023-01-28T10:00:58;94908.88;;;1.31;79.33
43711;BME280;29309;42.682;23.372;2023-01-28T10:06:49;94913.03;;;1.49;80.14
43711;BME280;29309;42.682;23.372;2023-01-28T10:17:53;94895.66;;;1.55;79.93
43711;BME280;29309;42.682;23.372;2023-01-28T10:20:31;94901.59;;;1.61;80.22
43711;BME280;29309;42.682;23.372;2023-01-28T10:25:32;94900.94;;;1.70;80.04
43711;BME280;29309;42.682;23.372;2023-01-28T10:28:00;94898.34;;;1.72;79.73
43711;BME280;29309;42.682;23.372;2023-01-28T10:30:31;94902.38;;;1.71;80.32
43711;BME280;29309;42.682;23.372;2023-01-28T10:33:09;94897.94;;;1.75;80.10
43711;BME280;29309;42.682;23.372;2023-01-28T10:35:40;94903.00;;;1.79;79.79
43711;BME280;29309;42.682;23.372;2023-01-28T10:38:11;94901.31;;;1.83;79.62
43711;BME280;29309;42.682;23.372;2023-01-28T10:40:40;94908.94;;;1.85;79.27
43711;BME280;29309;42.682;23.372;2023-01-28T10:43:06;94899.63;;;1.88;78.82
43711;BME280;29309;42.682;23.372;2023-01-28T10:48:28;94902.19;;;1.86;78.36
43711;BME280;29309;42.682;23.372;2023-01-28T10:50:58;94896.88;;;1.88;78.50
43711;BME280;29309;42.682;23.372;2023-01-28T10:53:38;94895.16;;;1.92;78.24
43711;BME280;29309;42.682;23.372;2023-01-28T10:56:08;94894.44;;;1.92;77.97
43711;BME280;29309;42.682;23.372;2023-01-28T10:58:44;94899.91;;;1.92;77.93
43711;BME280;29309;42.682;23.372;2023-01-28T11:01:11;94896.28;;;1.89;78.00
43711;BME280;29309;42.682;23.372;2023-01-28T11:03:37;94895.16;;;1.92;77.70
43711;BME280;29309;42.682;23.372;2023-01-28T11:06:03;94896.03;;;1.95;77.47
43711;BME280;29309;42.682;23.372;2023-01-28T11:08:30;94893.44;;;1.97;77.38
43711;BME280;29309;42.682;23.372;2023-01-28T11:10:56;94897.22;;;2.02;77.24
43711;BME280;29309;42.682;23.372;2023-01-28T11:13:29;94899.06;;;1.99;77.54
43711;BME280;29309;42.682;23.372;2023-01-28T11:18:27;94896.81;;;2.05;77.58
43711;BME280;29309;42.682;23.372;2023-01-28T11:21:00;94893.22;;;2.03;76.71
43711;BME280;29309;42.682;23.372;2023-01-28T11:23:32;94893.50;;;2.07;76.68
43711;BME280;29309;42.682;23.372;2023-01-28T11:26:37;94890.94;;;2.18;77.22
43711;BME280;29309;42.682;23.372;2023-01-28T11:29:04;94895.91;;;2.29;76.54
43711;BME280;29309;42.682;23.372;2023-01-28T11:31:37;94891.28;;;2.32;75.96
43711;BME280;29309;42.682;23.372;2023-01-28T11:34:05;94892.00;;;2.32;75.38
43711;BME280;29309;42.682;23.372;2023-01-28T11:36:32;94895.03;;;2.27;75.60
43711;BME280;29309;42.682;23.372;2023-01-28T11:39:20;94890.59;;;2.31;75.85
43711;BME280;29309;42.682;23.372;2023-01-28T11:41:46;94896.06;;;2.31;75.07
43711;BME280;29309;42.682;23.372;2023-01-28T11:44:20;94888.97;;;2.28;74.78
43711;BME280;29309;42.682;23.372;2023-01-28T12:03:19;94882.69;;;2.45;75.54
43711;BME280;29309;42.682;23.372;2023-01-28T12:08:56;94885.00;;;2.48;74.82
43711;BME280;29309;42.682;23.372;2023-01-28T12:33:44;94894.72;;;2.69;72.66
43711;BME280;29309;42.682;23.372;2023-01-28T12:41:19;94894.13;;;2.61;73.01
43711;BME280;29309;42.682;23.372;2023-01-28T12:44:23;94891.09;;;2.57;73.70
43711;BME280;29309;42.682;23.372;2023-01-28T12:46:54;94895.69;;;2.54;73.43
43711;BME280;29309;42.682;23.372;2023-01-28T12:52:12;94900.00;;;2.47;73.22
43711;BME280;29309;42.682;23.372;2023-01-28T12:55:02;94911.13;;;2.50;73.78
43711;BME280;29309;42.682;23.372;2023-01-28T12:57:31;94908.38;;;2.50;74.01
43711;BME280;29309;42.682;23.372;2023-01-28T13:00:18;94914.41;;;2.48;73.48
43711;BME280;29309;42.682;23.372;2023-01-28T13:02:52;94913.28;;;2.51;73.70
43711;BME280;29309;42.682;23.372;2023-01-28T13:05:30;94912.72;;;2.53;73.79
43711;BME280;29309;42.682;23.372;2023-01-28T13:08:07;94904.81;;;2.57;73.19
43711;BME280;29309;42.682;23.372;2023-01-28T13:10:44;94907.53;;;2.57;73.62
43711;BME280;29309;42.682;23.372;2023-01-28T13:13:32;94921.25;;;2.57;73.18
43711;BME280;29309;42.682;23.372;2023-01-28T13:16:00;94926.13;;;2.58;72.83
43711;BME280;29309;42.682;23.372;2023-01-28T13:20:54;94924.13;;;2.59;72.46
43711;BME280;29309;42.682;23.372;2023-01-28T13:25:50;94932.44;;;2.41;72.30
43711;BME280;29309;42.682;23.372;2023-01-28T13:28:30;94930.66;;;2.36;73.77
43711;BME280;29309;42.682;23.372;2023-01-28T13:31:06;94930.84;;;2.38;73.22
43711;BME280;29309;42.682;23.372;2023-01-28T13:33:35;94929.81;;;2.43;74.20
43711;BME280;29309;42.682;23.372;2023-01-28T13:36:21;94934.88;;;2.47;73.87
43711;BME280;29309;42.682;23.372;2023-01-28T13:39:44;94943.09;;;2.47;73.46
43711;BME280;29309;42.682;23.372;2023-01-28T13:41:49;94938.63;;;2.42;72.63
43711;BME280;29309;42.682;23.372;2023-01-28T13:44:28;94942.34;;;2.37;72.89
43711;BME280;29309;42.682;23.372;2023-01-28T13:46:59;94945.50;;;2.33;73.35
43711;BME280;29309;42.682;23.372;2023-01-28T13:49:40;94936.25;;;2.29;73.88
43711;BME280;29309;42.682;23.372;2023-01-28T13:54:37;94956.16;;;2.29;73.90
43711;BME280;29309;42.682;23.372;2023-01-28T14:05:08;94962.41;;;2.13;73.88
43711;BME280;29309;42.682;23.372;2023-01-28T14:15:42;94972.84;;;1.97;75.47
43711;BME280;29309;42.682;23.372;2023-01-28T14:18:23;94981.91;;;1.99;75.50
43711;BME280;29309;42.682;23.372;2023-01-28T14:20:50;94979.75;;;1.98;74.86
43711;BME280;29309;42.682;23.372;2023-01-28T14:23:18;94986.78;;;1.91;75.22
43711;BME280;29309;42.682;23.372;2023-01-28T14:31:07;94995.81;;;1.67;74.85
43711;BME280;29309;42.682;23.372;2023-01-28T14:33:36;95002.25;;;1.62;75.55
43711;BME280;29309;42.682;23.372;2023-01-28T14:36:02;94997.59;;;1.55;75.45
43711;BME280;29309;42.682;23.372;2023-01-28T14:38:29;94995.09;;;1.49;76.11
43711;BME280;29309;42.682;23.372;2023-01-28T14:40:58;95001.16;;;1.48;75.78
43711;BME280;29309;42.682;23.372;2023-01-28T14:43:25;95001.84;;;1.48;75.81
43711;BME280;29309;42.682;23.372;2023-01-28T15:01:59;95016.25;;;1.32;76.25
43711;BME280;29309;42.682;23.372;2023-01-28T15:04:30;95020.66;;;1.27;75.87
43711;BME280;29309;42.682;23.372;2023-01-28T15:07:01;95020.31;;;1.23;76.32
43711;BME280;29309;42.682;23.372;2023-01-28T15:09:26;95022.91;;;1.21;76.11
43711;BME280;29309;42.682;23.372;2023-01-28T15:11:54;95015.09;;;1.18;76.33
43711;BME280;29309;42.682;23.372;2023-01-28T15:14:24;95027.56;;;1.11;76.47
43711;BME280;29309;42.682;23.372;2023-01-28T15:16:50;95023.91;;;1.09;76.80
43711;BME280;29309;42.682;23.372;2023-01-28T15:19:22;95021.75;;;1.07;77.01
43711;BME280;29309;42.682;23.372;2023-01-28T15:21:54;95026.16;;;1.03;76.87
43711;BME280;29309;42.682;23.372;2023-01-28T15:24:20;95024.56;;;0.99;77.50
43711;BME280;29309;42.682;23.372;2023-01-28T15:26:46;95034.94;;;1.01;77.64
43711;BME280;29309;42.682;23.372;2023-01-28T15:29:52;95034.22;;;1.01;77.52
43711;BME280;29309;42.682;23.372;2023-01-28T15:32:25;95041.50;;;0.98;77.56
43711;BME280;29309;42.682;23.372;2023-01-28T15:34:51;95038.47;;;0.94;77.78